Terminal Aerodrome Forecast
Issued by NWS

Home | Current Version | Previous Version | Text Only | Print | Product List | Glossary On
Versions: 1 2 3 4 5 6 7 8 9 10 11 12
000
FTUS45 KFGZ 260500 RRA
TAFPRC
TAF
KPRC 260542Z 2606/2706 19007KT P6SM FEW070 FEW250
     FM261800 22011G18KT P6SM SCT250
     FM270100 21005KT P6SM FEW250=

USA.gov is the U.S. government's official web portal to all federal, state and local government web resources and services.